createdAt,value
2019-02-25T00:01:54.894Z,17.77
2019-02-25T00:09:24.746Z,18.97
2019-02-25T00:11:54.353Z,17.43
2019-02-25T00:14:24.876Z,18.40
2019-02-25T00:19:25.089Z,18.33
2019-02-25T00:21:54.513Z,17.33
2019-02-25T00:24:24.823Z,19.53
2019-02-25T00:26:55.883Z,19.40
2019-02-25T00:31:56.811Z,18.17
2019-02-25T00:34:25.918Z,19.73
2019-02-25T00:36:57.459Z,19.43
2019-02-25T00:41:55.865Z,18.63
2019-02-25T00:44:25.474Z,18.87
2019-02-25T00:46:56.192Z,17.70
2019-02-25T00:49:27.974Z,16.77
2019-02-25T00:51:58.827Z,18.00
2019-02-25T00:54:29.746Z,16.63
2019-02-25T00:56:58.715Z,18.73
2019-02-25T00:59:29.126Z,17.80
2019-02-25T01:04:32.975Z,18.13
2019-02-25T01:09:32.287Z,18.13
2019-02-25T01:12:01.373Z,18.87
2019-02-25T01:14:31.701Z,18.53
2019-02-25T01:17:00.482Z,17.33
2019-02-25T01:19:31.229Z,16.93
2019-02-25T01:21:59.905Z,18.17
2019-02-25T01:24:30.446Z,18.13
2019-02-25T01:27:00.450Z,18.53
2019-02-25T01:29:30.992Z,17.30
2019-02-25T01:32:01.825Z,16.97
2019-02-25T01:34:31.012Z,15.03
2019-02-25T01:37:01.646Z,14.63
2019-02-25T01:39:31.050Z,15.03
2019-02-25T01:42:02.526Z,14.03
2019-02-25T01:44:32.641Z,14.90
2019-02-25T01:47:03.869Z,14.40
2019-02-25T01:49:35.848Z,13.80
2019-02-25T01:54:49.587Z,14.13
2019-02-25T01:57:20.835Z,13.97
2019-02-25T01:59:51.258Z,13.07
2019-02-25T02:02:22.691Z,14.10
2019-02-25T02:04:51.907Z,13.47
2019-02-25T02:07:23.035Z,13.70
2019-02-25T02:09:52.128Z,13.37
2019-02-25T02:12:22.376Z,13.13
2019-02-25T02:17:21.461Z,12.87
2019-02-25T02:19:52.713Z,12.17
2019-02-25T02:22:23.439Z,11.57
2019-02-25T02:24:53.884Z,11.27
2019-02-25T02:29:56.987Z,12.23
2019-02-25T02:34:59.115Z,15.03
2019-02-25T02:37:29.784Z,13.83
2019-02-25T02:40:00.646Z,13.33
2019-02-25T02:42:36.478Z,14.03
2019-02-25T02:50:24.442Z,12.07
2019-02-25T02:52:55.401Z,12.83
2019-02-25T02:55:25.808Z,12.43
2019-02-25T02:57:56.868Z,12.37
2019-02-25T03:02:55.884Z,12.67
2019-02-25T03:05:25.371Z,12.13
2019-02-25T03:07:55.686Z,12.70
2019-02-25T03:12:56.441Z,11.53
2019-02-25T03:15:28.823Z,12.33
2019-02-25T03:18:04.971Z,11.47
2019-02-25T03:20:41.857Z,11.50
2019-02-25T03:26:21.836Z,11.83
2019-02-25T03:28:53.486Z,11.50
2019-02-25T03:31:24.116Z,12.67
2019-02-25T03:33:55.040Z,12.40
2019-02-25T03:36:27.014Z,11.63
2019-02-25T03:38:56.819Z,11.53
2019-02-25T03:41:31.840Z,14.03
2019-02-25T03:44:03.827Z,15.20
2019-02-25T03:49:07.228Z,15.67
2019-02-25T03:51:37.652Z,13.23
2019-02-25T03:54:07.773Z,13.50
2019-02-25T03:56:37.905Z,13.33
2019-02-25T03:59:13.739Z,12.80
2019-02-25T04:01:45.399Z,11.90
2019-02-25T04:04:16.532Z,12.23
2019-02-25T04:06:48.619Z,12.20
2019-02-25T04:09:41.973Z,12.03
2019-02-25T04:12:10.863Z,11.50
2019-02-25T04:17:22.976Z,12.23
2019-02-25T04:19:52.901Z,12.43
2019-02-25T04:22:33.178Z,11.90
2019-02-25T04:25:15.441Z,14.40
2019-02-25T04:27:47.001Z,14.80
2019-02-25T04:30:18.967Z,16.63
2019-02-25T04:32:52.884Z,15.83
2019-02-25T04:35:24.434Z,13.07
2019-02-25T04:37:56.304Z,12.53
2019-02-25T04:40:32.866Z,11.30
2019-02-25T04:43:06.766Z,10.67
2019-02-25T04:45:37.686Z,9.90
2019-02-25T04:48:07.912Z,11.10
2019-02-25T04:50:38.436Z,11.67
2019-02-25T04:53:08.778Z,10.73
2019-02-25T04:55:39.829Z,11.60
2019-02-25T04:58:10.021Z,12.47
2019-02-25T05:00:40.450Z,10.77
2019-02-25T05:03:14.785Z,11.50
2019-02-25T05:05:46.749Z,10.47
2019-02-25T05:08:16.847Z,10.93
2019-02-25T05:10:47.304Z,11.90
2019-02-25T05:13:17.658Z,11.43
2019-02-25T05:15:47.714Z,11.83
2019-02-25T05:18:18.144Z,12.33
2019-02-25T05:20:48.597Z,12.73
2019-02-25T05:23:18.790Z,12.27
2019-02-25T05:25:51.800Z,15.47
2019-02-25T05:28:22.609Z,13.23
2019-02-25T05:30:52.848Z,13.47
2019-02-25T05:33:23.786Z,14.53
2019-02-25T05:35:53.090Z,15.20
2019-02-25T05:38:23.914Z,16.40
2019-02-25T05:43:22.512Z,13.60
2019-02-25T05:45:52.849Z,12.43
2019-02-25T05:53:23.622Z,12.37
2019-02-25T05:55:55.047Z,13.47
2019-02-25T05:58:24.122Z,11.87
2019-02-25T06:03:22.942Z,13.60
2019-02-25T06:08:22.469Z,15.43
2019-02-25T06:10:53.538Z,16.07
2019-02-25T06:13:23.828Z,17.13
2019-02-25T06:15:54.460Z,19.30
2019-02-25T06:18:24.915Z,19.57
2019-02-25T06:23:22.898Z,20.73
2019-02-25T06:28:21.469Z,20.90
2019-02-25T06:30:51.808Z,19.67
2019-02-25T06:33:22.547Z,20.57
2019-02-25T06:35:52.878Z,19.73
2019-02-25T06:38:22.903Z,18.13
2019-02-25T06:40:54.535Z,19.53
2019-02-25T06:45:54.247Z,20.00
2019-02-25T06:48:24.906Z,20.27
2019-02-25T06:50:55.127Z,20.43
2019-02-25T06:53:24.961Z,19.53
2019-02-25T06:55:55.447Z,17.47
2019-02-25T06:58:25.477Z,16.70
2019-02-25T07:00:55.475Z,17.40
2019-02-25T07:06:05.960Z,18.77
2019-02-25T07:08:47.767Z,17.43
2019-02-25T07:14:14.106Z,14.00
2019-02-25T07:17:03.081Z,15.70
2019-02-25T07:27:15.124Z,18.60
2019-02-25T07:30:04.384Z,17.70
2019-02-25T07:32:49.867Z,17.73
2019-02-25T07:35:38.507Z,17.27
2019-02-25T07:38:27.362Z,16.27
2019-02-25T07:41:16.750Z,17.07
2019-02-25T07:44:05.483Z,18.80
2019-02-25T07:46:47.898Z,18.57
2019-02-25T07:49:36.863Z,18.20
2019-02-25T07:55:13.453Z,15.67
2019-02-25T07:58:02.410Z,17.63
2019-02-25T08:00:49.831Z,17.33
2019-02-25T08:03:33.132Z,17.43
2019-02-25T08:06:21.812Z,17.23
2019-02-25T08:09:10.883Z,17.47
2019-02-25T08:11:59.848Z,17.43
2019-02-25T08:14:47.468Z,16.73
2019-02-25T08:17:35.706Z,17.03
2019-02-25T08:23:14.133Z,18.30
2019-02-25T08:26:03.837Z,17.73
2019-02-25T08:28:52.898Z,19.00
2019-02-25T08:31:42.666Z,18.53
2019-02-25T08:37:25.705Z,17.57
2019-02-25T08:45:38.456Z,15.97
2019-02-25T08:48:15.127Z,17.70
2019-02-25T08:50:49.126Z,16.97
2019-02-25T08:53:21.526Z,16.37
2019-02-25T08:55:52.446Z,17.47
2019-02-25T08:58:22.874Z,16.80
2019-02-25T09:00:53.805Z,19.47
2019-02-25T09:03:23.825Z,16.80
2019-02-25T09:05:53.841Z,18.87
2019-02-25T09:08:24.275Z,17.23
2019-02-25T09:10:54.696Z,17.57
2019-02-25T09:13:25.016Z,16.47
2019-02-25T09:15:55.249Z,20.03
2019-02-25T09:18:25.459Z,17.87
2019-02-25T09:20:55.284Z,18.17
2019-02-25T09:23:25.194Z,18.73
2019-02-25T09:25:54.995Z,19.53
2019-02-25T09:28:25.424Z,19.53
2019-02-25T09:30:55.748Z,19.63
2019-02-25T09:33:25.670Z,22.73
2019-02-25T09:35:55.684Z,20.57
2019-02-25T09:38:25.796Z,20.80
2019-02-25T09:40:56.022Z,20.53
2019-02-25T09:43:26.144Z,20.93
2019-02-25T09:45:56.666Z,19.70
2019-02-25T09:48:26.474Z,21.37
2019-02-25T09:50:56.808Z,24.00
2019-02-25T09:53:27.245Z,19.27
2019-02-25T09:55:57.107Z,18.37
2019-02-25T09:58:27.692Z,19.27
2019-02-25T10:00:57.798Z,19.57
2019-02-25T10:03:28.217Z,20.80
2019-02-25T10:05:59.679Z,21.50
2019-02-25T10:08:29.604Z,26.07
2019-02-25T10:10:59.917Z,24.83
2019-02-25T10:13:31.460Z,26.00
2019-02-25T10:16:01.685Z,25.00
2019-02-25T10:18:33.746Z,27.87
2019-02-25T10:23:33.674Z,28.00
2019-02-25T10:26:04.011Z,28.43
2019-02-25T10:28:33.920Z,30.47
2019-02-25T10:31:03.927Z,30.37
2019-02-25T10:33:34.254Z,29.07
2019-02-25T10:36:04.064Z,28.77
2019-02-25T10:38:34.385Z,29.97
2019-02-25T10:41:04.724Z,30.13
2019-02-25T10:43:36.462Z,29.73
2019-02-25T10:46:06.970Z,29.70
2019-02-25T10:51:08.821Z,28.40
2019-02-25T10:53:37.357Z,26.70
2019-02-25T11:03:35.899Z,22.97
2019-02-25T11:06:06.006Z,22.30
2019-02-25T11:08:37.377Z,22.40
2019-02-25T11:11:06.756Z,22.60
2019-02-25T11:16:05.873Z,21.23
2019-02-25T11:18:35.985Z,20.33
2019-02-25T11:21:06.897Z,23.10
2019-02-25T11:23:36.526Z,22.60
2019-02-25T11:28:36.664Z,21.57
2019-02-25T11:33:35.675Z,21.93
2019-02-25T11:36:05.483Z,21.33
2019-02-25T11:38:37.414Z,22.97
2019-02-25T11:41:09.474Z,22.20
2019-02-25T11:48:36.183Z,25.20
2019-02-25T11:53:35.088Z,21.63
2019-02-25T11:56:04.796Z,20.40
2019-02-25T11:58:34.810Z,21.57
2019-02-25T12:01:05.257Z,21.23
2019-02-25T12:03:35.565Z,21.50
2019-02-25T12:06:05.476Z,24.83
2019-02-25T12:08:35.489Z,22.47
2019-02-25T12:11:05.614Z,22.17
2019-02-25T12:13:36.136Z,20.63
2019-02-25T12:16:06.155Z,22.50
2019-02-25T12:18:36.382Z,21.20
2019-02-25T12:21:06.715Z,20.73
2019-02-25T12:23:36.724Z,22.70
2019-02-25T12:26:06.851Z,24.20
2019-02-25T12:28:36.756Z,21.23
2019-02-25T12:31:06.774Z,21.23
2019-02-25T12:33:37.297Z,19.50
2019-02-25T12:38:36.107Z,19.33
2019-02-25T12:41:06.226Z,17.17
2019-02-25T12:43:36.854Z,16.30
2019-02-25T12:46:07.171Z,16.13
2019-02-25T12:48:37.503Z,19.20
2019-02-25T12:53:37.869Z,17.47
2019-02-25T12:58:37.571Z,16.63
2019-02-25T13:03:36.775Z,17.27
2019-02-25T13:08:36.579Z,18.37
2019-02-25T13:13:37.465Z,20.53
2019-02-25T13:18:36.977Z,21.70
2019-02-25T13:21:07.206Z,17.07
2019-02-25T13:23:37.694Z,18.00
2019-02-25T13:26:07.914Z,18.47
2019-02-25T13:28:38.284Z,17.03
2019-02-25T13:31:10.234Z,15.17
2019-02-25T13:33:39.239Z,16.47
2019-02-25T13:36:11.906Z,16.67
2019-02-25T13:41:09.688Z,15.67
2019-02-25T13:43:38.584Z,18.50
2019-02-25T13:48:37.802Z,17.50
2019-02-25T13:53:37.520Z,16.07
2019-02-25T13:56:07.956Z,15.83
2019-02-25T13:58:38.394Z,14.93
2019-02-25T14:03:37.704Z,14.57
2019-02-25T14:06:08.225Z,14.10
2019-02-25T14:11:07.939Z,13.97
2019-02-25T14:13:38.672Z,14.33
2019-02-25T14:18:37.686Z,14.23
2019-02-25T14:21:07.812Z,15.50
2019-02-25T14:23:40.329Z,15.97
2019-02-25T14:26:08.876Z,16.80
2019-02-25T14:33:37.786Z,21.47
2019-02-25T14:36:10.658Z,20.30
2019-02-25T14:38:39.127Z,24.47
2019-02-25T14:41:11.181Z,22.63
2019-02-25T14:53:38.629Z,18.23
2019-02-25T14:56:08.957Z,16.47
2019-02-25T14:58:40.565Z,16.67
2019-02-25T15:01:10.726Z,18.43
2019-02-25T15:03:40.846Z,18.67
2019-02-25T15:11:10.855Z,19.73
2019-02-25T15:18:38.896Z,21.73
2019-02-25T15:21:11.249Z,20.27
2019-02-25T15:28:39.372Z,28.67
2019-02-25T15:33:39.893Z,19.07
2019-02-25T15:36:11.468Z,19.27
2019-02-25T15:38:41.795Z,20.77
2019-02-25T15:41:11.716Z,20.90
2019-02-25T15:48:41.430Z,106.17
2019-02-25T15:51:10.554Z,33.20
2019-02-25T15:56:10.269Z,26.87
2019-02-25T16:03:40.913Z,30.97
2019-02-25T16:06:10.596Z,32.87
2019-02-25T16:13:38.876Z,26.57
2019-02-25T16:16:11.347Z,23.47
2019-02-25T16:18:42.568Z,26.87
2019-02-25T16:21:13.307Z,27.13
2019-02-25T16:26:13.400Z,33.43
2019-02-25T16:28:42.130Z,33.30
2019-02-25T16:36:10.031Z,29.00
2019-02-25T16:38:40.367Z,27.47
2019-02-25T16:51:12.378Z,25.00
2019-02-25T17:26:15.668Z,34.27
2019-02-25T17:28:45.906Z,33.83
2019-02-25T17:31:16.366Z,34.70
2019-02-25T17:51:19.115Z,35.63
2019-02-25T17:53:52.686Z,35.00
2019-02-25T17:56:26.670Z,32.10
2019-02-25T17:58:59.370Z,32.63
2019-02-25T18:01:30.866Z,31.17
2019-02-25T18:04:08.785Z,29.33
2019-02-25T18:19:20.892Z,31.17
2019-02-25T18:21:52.017Z,33.10
2019-02-25T18:24:26.760Z,30.97
2019-02-25T18:26:58.917Z,32.67
2019-02-25T18:29:29.514Z,32.63
2019-02-25T18:32:04.215Z,31.37
2019-02-25T18:34:37.046Z,30.40
2019-02-25T18:37:09.213Z,32.93
2019-02-25T18:47:21.269Z,29.07
2019-02-25T18:49:58.357Z,29.70
2019-02-25T18:52:31.865Z,30.57
2019-02-25T18:55:11.255Z,30.83
2019-02-25T19:00:24.303Z,32.43
2019-02-25T19:02:56.267Z,31.77
2019-02-25T19:05:29.253Z,31.57
2019-02-25T19:08:00.483Z,29.63
2019-02-25T19:10:30.718Z,28.93
2019-02-25T19:13:05.949Z,26.67
2019-02-25T19:15:40.979Z,28.97
2019-02-25T19:23:20.755Z,25.20
2019-02-25T19:25:49.641Z,25.93
2019-02-25T19:28:19.677Z,24.10
2019-02-25T19:33:22.867Z,24.13
2019-02-25T19:35:54.403Z,24.80
2019-02-25T19:38:34.008Z,25.37
2019-02-25T19:41:05.470Z,24.03
2019-02-25T19:43:37.113Z,24.70
2019-02-25T19:46:08.718Z,24.07
2019-02-25T19:48:39.864Z,23.93
2019-02-25T19:51:11.913Z,24.67
2019-02-25T19:56:18.013Z,24.63
2019-02-25T19:58:46.998Z,24.73
2019-02-25T20:11:12.910Z,23.33
2019-02-25T20:21:13.681Z,23.00
2019-02-25T20:23:45.382Z,23.33
2019-02-25T20:26:17.708Z,23.37
2019-02-25T20:28:48.758Z,24.03
2019-02-25T20:36:17.173Z,23.67
2019-02-25T20:38:44.199Z,21.43
2019-02-25T20:43:56.710Z,22.40
2019-02-25T20:46:29.201Z,20.87
2019-02-25T20:49:01.465Z,20.77
2019-02-25T20:51:36.900Z,21.67
2019-02-25T20:54:11.138Z,22.20
2019-02-25T20:56:44.418Z,23.23
2019-02-25T20:59:16.908Z,23.27
2019-02-25T21:01:51.125Z,24.97
2019-02-25T21:04:22.275Z,24.00
2019-02-25T21:19:20.030Z,26.00
2019-02-25T21:21:52.921Z,28.30
2019-02-25T21:24:19.307Z,26.67
2019-02-25T21:29:17.490Z,23.47
2019-02-25T21:31:47.575Z,25.60
2019-02-25T21:39:18.649Z,26.87
2019-02-25T21:44:19.103Z,27.10
2019-02-25T21:46:51.862Z,26.50
2019-02-25T21:49:20.222Z,29.57
2019-02-25T21:59:17.595Z,27.97
2019-02-25T22:01:46.881Z,29.00
2019-02-25T22:04:18.581Z,30.00
2019-02-25T22:09:22.678Z,26.33
2019-02-25T22:19:18.604Z,27.10
2019-02-25T22:21:47.354Z,28.27
2019-02-25T22:29:17.293Z,32.20
2019-02-25T22:31:46.590Z,33.97
2019-02-25T22:34:18.080Z,31.87
2019-02-25T22:36:48.714Z,31.47
2019-02-25T22:39:18.469Z,28.63
2019-02-25T22:44:16.358Z,29.30
2019-02-25T22:49:15.453Z,26.20
2019-02-25T22:51:45.484Z,26.80
2019-02-25T22:54:17.103Z,25.23
2019-02-25T22:56:46.939Z,25.50
2019-02-25T22:59:19.920Z,24.10
2019-02-25T23:01:47.692Z,24.63
2019-02-25T23:06:48.928Z,27.00
2019-02-25T23:09:18.967Z,26.47
2019-02-25T23:11:50.505Z,30.50
2019-02-25T23:19:18.184Z,30.17
2019-02-25T23:21:47.713Z,27.47
2019-02-25T23:26:48.743Z,28.63
2019-02-25T23:29:19.582Z,30.40
2019-02-25T23:31:48.525Z,28.13
2019-02-25T23:36:47.513Z,30.43
2019-02-25T23:39:17.883Z,31.07
2019-02-25T23:46:47.484Z,31.83
2019-02-25T23:51:48.153Z,28.37
2019-02-25T23:59:17.094Z,25.70
